createdAt,value
2023-02-04T00:00:14.565Z,90.39
2023-02-04T00:02:42.709Z,90.07
2023-02-04T00:05:11.064Z,89.91
2023-02-04T00:07:41.258Z,89.81
2023-02-04T00:10:13.900Z,89.85
2023-02-04T00:12:41.867Z,89.97
2023-02-04T00:15:10.814Z,90.23
2023-02-04T00:17:39.730Z,90.25
2023-02-04T00:20:08.224Z,90.37
2023-02-04T00:22:38.133Z,90.40
2023-02-04T00:25:06.657Z,90.22
2023-02-04T00:27:35.245Z,90.04
2023-02-04T00:30:04.898Z,89.93
2023-02-04T00:32:33.013Z,89.86
2023-02-04T00:35:04.778Z,90.19
2023-02-04T00:37:33.404Z,90.25
2023-02-04T00:40:01.432Z,90.27
2023-02-04T00:42:29.796Z,90.28
2023-02-04T00:44:59.820Z,90.14
2023-02-04T00:47:27.813Z,90.32
2023-02-04T00:49:57.776Z,90.29
2023-02-04T00:52:26.655Z,90.31
2023-02-04T00:54:54.698Z,90.39
2023-02-04T00:57:23.526Z,90.43
2023-02-04T00:59:51.749Z,90.91
2023-02-04T01:02:20.032Z,90.97
2023-02-04T01:04:49.543Z,91.10
2023-02-04T01:07:19.765Z,91.04
2023-02-04T01:09:47.852Z,91.18
2023-02-04T01:12:16.032Z,91.20
2023-02-04T01:14:44.643Z,91.12
2023-02-04T01:17:13.702Z,91.18
2023-02-04T01:19:41.956Z,91.37
2023-02-04T01:22:10.863Z,91.44
2023-02-04T01:24:39.053Z,91.71
2023-02-04T01:27:25.957Z,91.77
2023-02-04T01:29:54.673Z,91.61
2023-02-04T01:32:22.819Z,91.58
2023-02-04T01:34:51.152Z,91.28
2023-02-04T01:37:20.011Z,91.18
2023-02-04T01:39:48.066Z,91.29
2023-02-04T01:42:16.163Z,91.34
2023-02-04T01:44:44.278Z,91.33
2023-02-04T01:47:12.421Z,91.68
2023-02-04T01:49:41.676Z,91.79
2023-02-04T01:52:10.330Z,91.63
2023-02-04T01:54:39.604Z,91.61
2023-02-04T01:57:10.635Z,91.56
2023-02-04T01:59:42.505Z,91.69
2023-02-04T02:02:40.141Z,91.67
2023-02-04T02:05:10.493Z,91.77
2023-02-04T02:07:40.411Z,92.13
2023-02-04T02:10:10.109Z,92.13
2023-02-04T02:12:38.712Z,92.11
2023-02-04T02:15:10.053Z,91.91
2023-02-04T02:17:38.691Z,91.79
2023-02-04T02:20:09.604Z,91.69
2023-02-04T02:22:59.186Z,91.83
2023-02-04T02:25:27.395Z,91.81
2023-02-04T02:27:56.333Z,91.88
2023-02-04T02:30:24.419Z,92.27
2023-02-04T02:32:52.532Z,92.50
2023-02-04T02:35:21.696Z,92.63
2023-02-04T02:37:51.030Z,92.82
2023-02-04T02:40:19.270Z,92.69
2023-02-04T02:42:49.364Z,92.83
2023-02-04T02:45:25.363Z,92.78
2023-02-04T02:47:53.458Z,93.08
2023-02-04T02:50:23.519Z,93.16
2023-02-04T02:52:53.324Z,93.49
2023-02-04T02:55:23.968Z,93.71
2023-02-04T02:57:52.493Z,93.83
2023-02-04T03:00:25.732Z,93.86
2023-02-04T03:02:57.755Z,93.68
2023-02-04T03:05:25.997Z,93.66
2023-02-04T03:07:54.914Z,93.72
2023-02-04T03:10:23.218Z,93.94
2023-02-04T03:12:51.813Z,93.97
2023-02-04T03:15:20.017Z,94.32
2023-02-04T03:17:48.023Z,94.47
2023-02-04T03:20:16.324Z,94.32
2023-02-04T03:22:44.563Z,94.12
2023-02-04T03:25:13.316Z,94.08
2023-02-04T03:27:42.241Z,93.92
2023-02-04T03:30:11.340Z,94.02
2023-02-04T03:32:41.866Z,94.07
2023-02-04T03:35:10.203Z,94.17
2023-02-04T03:37:39.403Z,94.14
2023-02-04T03:40:08.590Z,94.11
2023-02-04T03:42:38.741Z,94.16
2023-02-04T03:45:07.218Z,94.03
2023-02-04T03:47:36.354Z,93.75
2023-02-04T03:50:05.329Z,93.69
2023-02-04T03:52:34.255Z,93.73
2023-02-04T03:55:02.310Z,93.74
2023-02-04T03:57:30.542Z,93.94
2023-02-04T03:59:58.575Z,93.92
2023-02-04T04:02:27.185Z,94.13
2023-02-04T04:04:55.433Z,93.82
2023-02-04T04:07:24.109Z,94.04
2023-02-04T04:09:52.546Z,93.79
2023-02-04T04:12:20.556Z,93.72
2023-02-04T04:14:49.270Z,93.68
2023-02-04T04:17:17.432Z,93.70
2023-02-04T04:19:45.513Z,93.91
2023-02-04T04:22:13.904Z,93.92
2023-02-04T04:24:42.702Z,94.13
2023-02-04T04:27:10.805Z,94.22
2023-02-04T04:29:38.737Z,93.95
2023-02-04T04:32:07.346Z,93.60
2023-02-04T04:34:36.038Z,93.60
2023-02-04T04:37:04.236Z,93.54
2023-02-04T04:39:32.174Z,93.44
2023-02-04T04:42:00.101Z,93.06
2023-02-04T04:44:28.212Z,92.93
2023-02-04T04:46:56.474Z,93.04
2023-02-04T04:49:24.648Z,93.31
2023-02-04T04:51:52.671Z,93.24
2023-02-04T04:54:21.080Z,93.14
2023-02-04T04:56:49.089Z,93.24
2023-02-04T04:59:17.342Z,93.30
2023-02-04T05:01:45.427Z,93.05
2023-02-04T05:04:14.691Z,93.22
2023-02-04T05:06:43.016Z,93.36
2023-02-04T05:09:10.979Z,93.32
2023-02-04T05:11:39.051Z,93.49
2023-02-04T05:14:07.302Z,93.63
2023-02-04T05:16:36.213Z,93.63
2023-02-04T05:19:05.138Z,94.01
2023-02-04T05:21:33.904Z,94.29
2023-02-04T05:24:02.240Z,94.21
2023-02-04T05:26:31.389Z,94.06
2023-02-04T05:29:02.847Z,94.11
2023-02-04T05:31:33.214Z,93.99
2023-02-04T05:34:02.055Z,94.13
2023-02-04T05:36:30.197Z,94.26
2023-02-04T05:38:58.776Z,94.33
2023-02-04T05:41:27.027Z,94.67
2023-02-04T05:43:55.140Z,94.75
2023-02-04T05:46:23.061Z,94.88
2023-02-04T05:48:51.062Z,94.76
2023-02-04T05:51:18.998Z,94.59
2023-02-04T05:53:47.308Z,94.55
2023-02-04T05:56:15.371Z,94.68
2023-02-04T05:58:45.990Z,94.82
2023-02-04T06:01:14.044Z,95.06
2023-02-04T06:03:42.069Z,95.24
2023-02-04T06:06:10.669Z,95.19
2023-02-04T06:08:39.093Z,95.47
2023-02-04T06:11:07.296Z,95.28
2023-02-04T06:13:35.713Z,95.50
2023-02-04T06:16:05.082Z,95.54
2023-02-04T06:18:33.618Z,95.73
2023-02-04T06:21:06.885Z,95.91
2023-02-04T06:23:34.950Z,96.20
2023-02-04T06:26:03.206Z,96.31
2023-02-04T06:28:31.905Z,96.46
2023-02-04T06:30:59.956Z,96.55
2023-02-04T06:33:28.119Z,96.55
2023-02-04T06:35:56.073Z,96.74
2023-02-04T06:38:26.823Z,96.65
2023-02-04T06:40:55.427Z,97.07
2023-02-04T06:43:25.493Z,97.21
2023-02-04T06:45:55.092Z,97.45
2023-02-04T06:48:23.133Z,97.61
2023-02-04T06:50:52.791Z,97.74
2023-02-04T06:53:20.991Z,97.77
2023-02-04T06:55:49.523Z,97.91
2023-02-04T06:58:17.492Z,97.77
2023-02-04T07:00:46.021Z,97.95
2023-02-04T07:03:14.739Z,97.80
2023-02-04T07:05:51.253Z,97.94
2023-02-04T07:08:19.805Z,97.92
2023-02-04T07:10:48.406Z,98.03
2023-02-04T07:13:20.488Z,97.93
2023-02-04T07:15:51.243Z,97.56
2023-02-04T07:18:20.436Z,97.06
2023-02-04T07:20:52.896Z,96.83
2023-02-04T07:23:21.077Z,96.92
2023-02-04T07:25:49.198Z,96.90
2023-02-04T07:28:17.293Z,96.89
2023-02-04T07:30:45.513Z,96.59
2023-02-04T07:33:13.771Z,96.66
2023-02-04T07:35:42.392Z,96.15
2023-02-04T07:38:10.696Z,96.01
2023-02-04T07:40:39.513Z,95.76
2023-02-04T07:43:08.393Z,95.09
2023-02-04T07:45:36.621Z,95.06
2023-02-04T07:48:04.999Z,95.17
2023-02-04T07:50:34.428Z,94.75
2023-02-04T07:53:02.933Z,94.24
2023-02-04T07:55:31.044Z,94.07
2023-02-04T07:57:59.225Z,94.15
2023-02-04T08:00:27.272Z,93.80
2023-02-04T08:02:55.355Z,93.82
2023-02-04T08:05:23.424Z,93.69
2023-02-04T08:10:01.150Z,93.58
2023-02-04T08:12:29.460Z,93.58
2023-02-04T08:14:57.837Z,93.67
2023-02-04T08:17:25.886Z,93.69
2023-02-04T08:19:53.927Z,93.76
2023-02-04T08:22:22.854Z,93.69
2023-02-04T08:24:51.225Z,93.63
2023-02-04T08:27:19.265Z,93.53
2023-02-04T08:29:47.708Z,93.73
2023-02-04T08:32:17.345Z,93.82
2023-02-04T08:34:45.280Z,93.93
2023-02-04T08:37:15.467Z,94.02
2023-02-04T08:39:46.339Z,93.99
2023-02-04T08:42:15.753Z,94.21
2023-02-04T08:44:43.884Z,94.29
2023-02-04T08:47:11.996Z,94.49
2023-02-04T08:49:40.325Z,94.62
2023-02-04T08:52:11.781Z,94.72
2023-02-04T08:54:55.016Z,94.34
2023-02-04T08:57:25.500Z,94.45
2023-02-04T08:59:53.829Z,94.59
2023-02-04T09:02:21.848Z,94.52
2023-02-04T09:04:50.116Z,94.39
2023-02-04T09:07:18.361Z,94.23
2023-02-04T09:09:46.787Z,94.24
2023-02-04T09:12:19.716Z,94.20
2023-02-04T09:14:48.380Z,94.57
2023-02-04T09:17:16.416Z,94.81
2023-02-04T09:19:44.959Z,94.88
2023-02-04T09:22:15.574Z,94.76
2023-02-04T09:24:43.908Z,94.53
2023-02-04T09:27:12.385Z,94.76
2023-02-04T09:29:40.560Z,94.97
2023-02-04T09:32:08.712Z,95.25
2023-02-04T09:34:37.092Z,95.53
2023-02-04T09:37:05.503Z,95.55
2023-02-04T09:39:33.877Z,95.16
2023-02-04T09:42:01.895Z,94.98
2023-02-04T09:44:30.577Z,94.82
2023-02-04T09:47:00.185Z,94.85
2023-02-04T09:49:28.609Z,94.98
2023-02-04T12:20:15.724Z,89.26
2023-02-04T12:22:44.430Z,88.34
2023-02-04T12:25:17.056Z,87.35
2023-02-04T12:27:46.133Z,86.52
2023-02-04T12:30:14.552Z,86.69
2023-02-04T12:32:42.519Z,86.27
2023-02-04T12:35:13.003Z,85.40
2023-02-04T12:37:41.296Z,82.12
2023-02-04T12:40:15.935Z,80.72
2023-02-04T12:42:44.773Z,81.35
2023-02-04T12:45:14.733Z,81.27
2023-02-04T12:47:44.006Z,81.29
2023-02-04T12:50:22.800Z,81.64
2023-02-04T12:52:55.788Z,81.46
2023-02-04T12:55:26.771Z,81.72
2023-02-04T12:57:56.301Z,81.71
2023-02-04T13:00:24.640Z,80.79
2023-02-04T13:02:54.940Z,80.67
2023-02-04T13:05:23.318Z,81.24
2023-02-04T13:07:51.350Z,80.69
2023-02-04T13:10:20.189Z,80.65
2023-02-04T13:12:51.418Z,80.33
2023-02-04T13:15:20.270Z,79.30
2023-02-04T13:17:49.923Z,79.33
2023-02-04T13:20:18.125Z,78.96
2023-02-04T13:22:46.620Z,79.24
2023-02-04T13:25:14.938Z,78.51
2023-02-04T13:27:43.473Z,78.45
2023-02-04T13:30:14.114Z,78.62
2023-02-04T13:32:44.199Z,77.41
2023-02-04T13:35:12.195Z,76.69
2023-02-04T13:37:40.341Z,77.02
2023-02-04T13:40:09.568Z,76.39
2023-02-04T13:42:39.414Z,75.73
2023-02-04T13:45:12.402Z,75.76
2023-02-04T13:47:40.592Z,76.02
2023-02-04T13:50:08.942Z,75.82
2023-02-04T13:52:37.529Z,76.07
2023-02-04T13:55:06.313Z,75.56
2023-02-04T13:57:34.526Z,75.37
2023-02-04T14:00:03.329Z,75.78
2023-02-04T14:02:43.152Z,75.91
2023-02-04T14:05:12.926Z,76.18
2023-02-04T14:07:42.104Z,76.07
2023-02-04T14:10:12.233Z,76.14
2023-02-04T14:12:42.839Z,75.88
2023-02-04T14:15:13.219Z,76.09
2023-02-04T14:17:45.473Z,75.48
2023-02-04T14:20:18.620Z,75.05
2023-02-04T14:22:47.338Z,75.33
2023-02-04T14:25:16.832Z,74.47
2023-02-04T14:27:45.058Z,74.80
2023-02-04T14:30:17.629Z,75.04
2023-02-04T14:32:45.852Z,75.04
2023-02-04T14:35:14.006Z,74.66
2023-02-04T14:37:42.007Z,74.62
2023-02-04T14:40:12.529Z,74.29
2023-02-04T14:42:41.240Z,74.87
2023-02-04T14:45:10.258Z,75.22
2023-02-04T14:47:40.498Z,75.37
2023-02-04T14:50:14.373Z,75.81
2023-02-04T14:52:44.624Z,76.40
2023-02-04T14:55:14.566Z,76.57
2023-02-04T14:57:42.756Z,76.87
2023-02-04T15:00:11.756Z,77.39
2023-02-04T15:02:40.641Z,77.79
2023-02-04T15:05:12.463Z,77.18
2023-02-04T15:07:41.953Z,77.43
2023-02-04T15:10:13.204Z,77.37
2023-02-04T15:12:44.824Z,77.85
2023-02-04T15:15:12.963Z,77.70
2023-02-04T15:17:42.409Z,77.84
2023-02-04T15:20:11.428Z,77.82
2023-02-04T15:22:40.199Z,77.89
2023-02-04T15:25:08.693Z,77.67
2023-02-04T15:27:40.211Z,77.80
2023-02-04T15:30:09.121Z,77.60
2023-02-04T15:32:38.772Z,77.74
2023-02-04T15:43:24.729Z,77.70
2023-02-04T15:45:53.508Z,77.30
2023-02-04T15:48:24.137Z,77.38
2023-02-04T15:50:55.062Z,77.40
2023-02-04T15:53:23.179Z,77.19
2023-02-04T15:55:54.223Z,77.19
2023-02-04T15:58:22.586Z,76.98
2023-02-04T16:00:50.751Z,77.14
2023-02-04T16:03:21.981Z,77.03
2023-02-04T16:05:52.246Z,76.40
2023-02-04T16:08:21.531Z,76.47
2023-02-04T16:10:54.172Z,77.03
2023-02-04T16:21:55.393Z,77.03
2023-02-04T16:24:23.506Z,76.93
2023-02-04T16:26:56.973Z,76.73
2023-02-04T16:29:26.431Z,76.74
2023-02-04T16:31:53.572Z,76.83
2023-02-04T16:34:20.695Z,76.81
2023-02-04T16:36:49.325Z,76.86
2023-02-04T16:39:16.254Z,76.60
2023-02-04T16:41:43.404Z,76.48
2023-02-04T16:44:19.125Z,76.21
2023-02-04T16:46:45.908Z,76.08
2023-02-04T16:49:13.423Z,75.92
2023-02-04T16:51:43.038Z,75.81
2023-02-04T16:54:10.477Z,75.76
2023-02-04T16:56:38.883Z,75.92
2023-02-04T16:59:06.649Z,75.56
2023-02-04T17:01:35.245Z,75.35
2023-02-04T17:04:06.382Z,75.45
2023-02-04T17:06:37.492Z,74.94
2023-02-04T17:09:04.708Z,74.84
2023-02-04T17:11:33.699Z,75.69
2023-02-04T17:14:02.419Z,75.59
2023-02-04T17:16:30.309Z,75.57
2023-02-04T17:18:57.023Z,75.71
2023-02-04T17:21:25.875Z,75.34
2023-02-04T17:23:53.025Z,75.46
2023-02-04T17:26:24.445Z,75.26
2023-02-04T17:28:51.302Z,75.28
2023-02-04T17:31:18.430Z,75.45
2023-02-04T17:33:47.227Z,75.22
2023-02-04T17:36:14.726Z,75.37
2023-02-04T17:38:41.678Z,75.40
2023-02-04T17:41:10.852Z,75.45
2023-02-04T17:43:38.061Z,75.09
2023-02-04T17:46:05.179Z,75.08
2023-02-04T17:48:33.587Z,75.15
2023-02-04T19:48:35.387Z,86.87
2023-02-04T19:51:21.440Z,86.86
2023-02-04T19:53:55.453Z,86.90
2023-02-04T19:56:44.688Z,87.26
2023-02-04T19:59:34.392Z,87.42
2023-02-04T20:02:16.408Z,87.40
2023-02-04T20:04:46.437Z,87.24
2023-02-04T20:07:24.853Z,87.40
2023-02-04T20:10:21.648Z,87.26
2023-02-04T20:12:52.448Z,87.49
2023-02-04T20:15:23.886Z,87.50
2023-02-04T20:17:52.697Z,87.90
2023-02-04T20:20:33.134Z,87.78
2023-02-04T20:23:03.892Z,88.19
2023-02-04T20:25:46.540Z,88.11
2023-02-04T20:28:17.423Z,88.21
2023-02-04T20:30:48.705Z,88.26
2023-02-04T20:33:28.905Z,88.43
2023-02-04T20:36:21.111Z,88.76
2023-02-04T20:39:20.123Z,88.89
2023-02-04T20:41:48.407Z,89.00
2023-02-04T20:44:30.207Z,88.86
2023-02-04T20:47:20.108Z,88.93
2023-02-04T20:49:56.529Z,88.80
2023-02-04T20:52:55.852Z,88.94
2023-02-04T20:55:36.936Z,88.94
2023-02-04T20:58:09.001Z,89.11
2023-02-04T21:00:41.093Z,89.04
2023-02-04T21:03:38.130Z,89.18
2023-02-04T21:06:31.485Z,89.19
2023-02-04T21:09:07.998Z,88.88
2023-02-04T21:11:43.025Z,89.08
2023-02-04T21:14:12.629Z,89.01
2023-02-04T21:16:40.894Z,89.20
2023-02-04T21:19:13.118Z,89.45
2023-02-04T21:21:43.920Z,89.35
2023-02-04T21:24:14.041Z,89.47
2023-02-04T21:26:44.466Z,89.57
2023-02-04T21:29:19.146Z,89.67
2023-02-04T21:32:15.088Z,89.51
2023-02-04T21:35:27.898Z,89.48
2023-02-04T21:38:07.052Z,89.79
2023-02-04T21:40:59.557Z,90.16
2023-02-04T21:43:36.643Z,90.33
2023-02-04T21:46:10.895Z,90.20
2023-02-04T21:48:41.278Z,90.58
2023-02-04T21:51:09.695Z,90.46
2023-02-04T21:53:39.233Z,90.71
2023-02-04T21:56:14.666Z,90.87
2023-02-04T21:58:44.145Z,91.22
2023-02-04T22:01:25.885Z,91.45
2023-02-04T22:03:53.965Z,91.75
2023-02-04T22:06:22.085Z,91.78
2023-02-04T22:08:51.028Z,92.09
2023-02-04T22:11:19.510Z,92.20
2023-02-04T22:13:48.089Z,92.45
2023-02-04T22:16:17.251Z,92.43
2023-02-04T22:18:45.898Z,92.67
2023-02-04T22:21:14.296Z,93.01
2023-02-04T22:23:42.764Z,93.06
2023-02-04T22:26:17.575Z,93.35
2023-02-04T22:28:45.703Z,93.54
2023-02-04T22:31:16.145Z,93.45
2023-02-04T22:33:44.544Z,93.74
2023-02-04T22:36:13.022Z,93.61
2023-02-04T22:38:42.924Z,93.93
2023-02-04T22:41:17.068Z,93.82
2023-02-04T22:43:45.263Z,94.18
2023-02-04T22:46:13.330Z,94.42
2023-02-04T22:48:41.854Z,94.55
2023-02-04T22:51:12.880Z,94.74
2023-02-04T22:53:41.238Z,94.94
2023-02-04T22:56:11.354Z,94.93
2023-02-04T22:58:39.429Z,94.89
2023-02-04T23:01:08.315Z,95.08
2023-02-04T23:03:38.441Z,95.19
2023-02-04T23:06:06.516Z,95.35
2023-02-04T23:08:34.950Z,95.65
2023-02-04T23:11:13.028Z,95.76
2023-02-04T23:13:41.108Z,95.72
2023-02-04T23:16:10.112Z,96.15
2023-02-04T23:18:38.497Z,96.00
2023-02-04T23:21:10.289Z,96.27
2023-02-04T23:23:38.661Z,96.34
2023-02-04T23:26:08.074Z,96.42
2023-02-04T23:28:36.736Z,96.68
2023-02-04T23:31:06.204Z,96.71
2023-02-04T23:33:34.422Z,96.81
2023-02-04T23:36:03.015Z,96.73
2023-02-04T23:38:32.116Z,96.96
2023-02-04T23:41:00.377Z,96.72
2023-02-04T23:43:29.284Z,96.99
2023-02-04T23:45:57.789Z,97.09
2023-02-04T23:48:26.129Z,97.31
2023-02-04T23:50:57.174Z,97.44
2023-02-04T23:53:25.394Z,97.59
2023-02-04T23:55:53.622Z,97.47
2023-02-04T23:58:21.967Z,97.60
